Time;durP1;ratioP1;P1;durP2;ratioP2;P2;SDS_P1;SDS_P2;PMS_P1;PMS_P2;Temp;Humidity;BMP_temperature;BMP_pressure;BME280_temperature;BME280_humidity;BME280_pressure;Samples;Min_cycle;Max_cycle;Signal;HPM_P1;HPM_P2
2022/05/27 00:01:30;;;;;;;0.00;0.00;;;19.90;56.60;;;;;;5021975;28;20025;-72
2022/05/27 00:03:59;;;;;;;0.00;0.00;;;20.10;55.80;;;;;;5023747;28;20490;-73
2022/05/27 00:06:25;;;;;;;0.00;0.00;;;20.00;55.60;;;;;;5020732;28;20034;-73
2022/05/27 00:08:51;;;;;;;0.00;0.00;;;19.90;55.90;;;;;;5022321;28;20030;-73
2022/05/27 00:11:17;;;;;;;0.00;0.00;;;20.00;55.10;;;;;;5030372;28;20374;-73
2022/05/27 00:13:44;;;;;;;0.00;0.00;;;20.10;55.90;;;;;;5024031;28;20065;-72
2022/05/27 00:16:11;;;;;;;0.00;0.00;;;20.20;56.20;;;;;;5027895;28;20033;-73
2022/05/27 00:18:37;;;;;;;0.20;0.20;;;20.40;56.30;;;;;;5036380;28;20056;-73
2022/05/27 00:21:03;;;;;;;0.00;0.00;;;20.40;57.30;;;;;;5026163;28;20044;-72
2022/05/27 00:23:30;;;;;;;0.00;0.00;;;20.60;55.70;;;;;;5034860;28;20386;-72
2022/05/27 00:25:56;;;;;;;0.00;0.00;;;20.90;55.50;;;;;;5033563;28;20025;-73
2022/05/27 00:28:22;;;;;;;0.00;0.00;;;21.00;55.70;;;;;;5029326;28;20036;-71
2022/05/27 00:30:48;;;;;;;0.00;0.00;;;21.30;54.20;;;;;;5027204;28;20551;-72
2022/05/27 00:33:15;;;;;;;0.00;0.00;;;21.50;54.10;;;;;;5027160;28;20025;-73
2022/05/27 00:35:41;;;;;;;0.00;0.00;;;21.40;56.00;;;;;;5023161;28;20051;-73
2022/05/27 00:38:08;;;;;;;0.00;0.00;;;21.40;56.10;;;;;;5020448;28;20040;-72
2022/05/27 00:40:37;;;;;;;0.00;0.00;;;21.70;56.10;;;;;;5024978;28;20030;-71
2022/05/27 00:43:03;;;;;;;0.00;0.00;;;22.00;56.10;;;;;;5024743;28;20112;-73
2022/05/27 00:45:31;;;;;;;0.00;0.00;;;22.50;54.30;;;;;;5025328;28;20026;-73
2022/05/27 00:47:58;;;;;;;0.00;0.00;;;22.90;53.00;;;;;;5025808;28;20037;-73
2022/05/27 00:50:27;;;;;;;4.47;4.28;;;22.50;56.40;;;;;;5022366;28;20029;-73
2022/05/27 00:52:55;;;;;;;0.00;0.00;;;22.40;57.20;;;;;;5032630;28;20029;-73
2022/05/27 00:55:27;;;;;;;47.47;23.83;;;23.00;55.50;;;;;;5027785;28;20018;-73
2022/05/27 00:58:09;;;;;;;0.77;0.73;;;23.60;53.60;;;;;;5025383;28;20382;-73
2022/05/27 01:00:36;;;;;;;0.17;0.17;;;24.10;51.40;;;;;;5021250;28;20026;-71
2022/05/27 01:03:04;;;;;;;0.00;0.00;;;24.40;53.50;;;;;;5023662;28;20037;-71
2022/05/27 01:05:30;;;;;;;0.00;0.00;;;24.80;52.30;;;;;;5020529;28;20022;-72
2022/05/27 01:08:01;;;;;;;1.00;0.95;;;25.30;50.40;;;;;;5019396;28;20037;-72
2022/05/27 01:10:29;;;;;;;0.00;0.00;;;25.60;50.60;;;;;;5018526;28;20030;-72
2022/05/27 01:13:33;;;;;;;0.00;0.00;;;26.40;49.70;;;;;;5021660;28;20045;-72
2022/05/27 01:16:42;;;;;;;0.00;0.00;;;26.60;48.90;;;;;;5016203;28;20099;-72
2022/05/27 01:22:43;;;;;;;0.00;0.00;;;27.40;46.60;;;;;;5018338;28;20049;-72
2022/05/27 01:25:40;;;;;;;0.43;0.43;;;27.50;48.60;;;;;;5027124;28;20725;-73
2022/05/27 01:28:18;;;;;;;0.10;0.10;;;27.30;47.60;;;;;;5023376;28;20089;-72
2022/05/27 01:31:24;;;;;;;0.00;0.00;;;27.30;45.30;;;;;;5028866;28;20083;-72
2022/05/27 01:34:03;;;;;;;0.03;0.03;;;27.10;47.90;;;;;;5022887;28;20039;-73
2022/05/27 01:37:07;;;;;;;0.52;0.52;;;27.00;46.60;;;;;;5021458;28;20062;-72
2022/05/27 01:40:00;;;;;;;8.38;5.00;;;27.10;44.40;;;;;;5017056;28;20048;-72
2022/05/27 01:42:32;;;;;;;0.00;0.00;;;26.90;43.80;;;;;;5023345;28;20024;-73
2022/05/27 01:45:07;;;;;;;0.00;0.00;;;27.00;43.50;;;;;;5015869;28;20151;-72
2022/05/27 01:48:09;;;;;;;0.00;0.00;;;26.70;43.30;;;;;;5017879;28;20044;-72
2022/05/27 01:50:42;;;;;;;0.32;0.32;;;27.00;43.50;;;;;;5020393;28;20505;-73
2022/05/27 01:53:14;;;;;;;1.75;1.38;;;26.80;43.70;;;;;;5020664;28;20037;-71
2022/05/27 01:56:05;;;;;;;0.03;0.03;;;26.30;44.20;;;;;;5019871;28;20050;-73
2022/05/27 01:58:42;;;;;;;2.83;1.52;;;27.00;43.70;;;;;;5026203;28;20076;-72
2022/05/27 02:01:14;;;;;;;0.00;0.00;;;27.30;43.50;;;;;;5026289;28;20030;-72
2022/05/27 02:03:47;;;;;;;0.30;0.30;;;27.50;42.90;;;;;;5019857;28;20029;-72
2022/05/27 02:06:23;;;;;;;0.00;0.00;;;26.90;43.20;;;;;;5024657;28;20072;-71
2022/05/27 02:08:56;;;;;;;7.43;6.78;;;27.20;43.90;;;;;;5021567;28;20457;-72
2022/05/27 02:11:23;;;;;;;0.00;0.00;;;27.90;42.60;;;;;;5024208;28;20029;-72
2022/05/27 02:13:55;;;;;;;0.00;0.00;;;28.40;41.20;;;;;;5019112;28;20025;-72
2022/05/27 02:16:36;;;;;;;1.38;1.27;;;28.60;40.40;;;;;;5023595;28;20083;-72
2022/05/27 02:19:33;;;;;;;0.00;0.00;;;28.20;40.90;;;;;;5020309;28;20038;-72
2022/05/27 02:22:25;;;;;;;0.10;0.10;;;29.00;40.10;;;;;;5023574;28;20092;-73
2022/05/27 02:25:16;;;;;;;0.20;0.20;;;29.50;38.80;;;;;;5021145;28;20103;-73
2022/05/27 02:27:47;;;;;;;0.00;0.00;;;30.20;38.30;;;;;;5028907;28;20371;-73
2022/05/27 02:30:15;;;;;;;0.20;0.20;;;30.50;37.50;;;;;;5027134;28;20046;-73
2022/05/27 02:32:48;;;;;;;0.57;0.57;;;30.60;36.60;;;;;;5013756;28;20029;-71
2022/05/27 02:35:26;;;;;;;0.00;0.00;;;30.30;37.20;;;;;;5014379;28;20018;-73
2022/05/27 02:37:56;;;;;;;0.00;0.00;;;30.30;37.60;;;;;;5022576;28;20075;-73
2022/05/27 02:40:34;;;;;;;0.00;0.00;;;30.30;37.10;;;;;;5018371;28;20018;-73
2022/05/27 02:43:12;;;;;;;0.00;0.00;;;30.60;35.60;;;;;;5018224;28;20402;-72
2022/05/27 02:46:24;;;;;;;3.22;0.75;;;30.90;36.20;;;;;;5020023;28;20099;-74
2022/05/27 02:48:55;;;;;;;0.00;0.00;;;30.20;35.70;;;;;;5023173;28;20021;-73
2022/05/27 02:51:25;;;;;;;22.90;10.43;;;29.60;37.20;;;;;;5022330;28;20040;-74
2022/05/27 02:53:53;;;;;;;0.10;0.10;;;30.20;36.70;;;;;;5020326;28;20041;-72
2022/05/27 02:56:42;;;;;;;1.98;1.02;;;30.60;35.30;;;;;;5018903;28;20028;-74
2022/05/27 02:59:10;;;;;;;0.40;0.20;;;31.00;35.20;;;;;;5018493;28;20021;-74
2022/05/27 03:01:37;;;;;;;0.60;0.60;;;31.20;34.50;;;;;;5029740;28;20052;-74
2022/05/27 03:04:05;;;;;;;0.03;0.03;;;31.50;33.90;;;;;;5033238;28;20068;-75
2022/05/27 03:06:56;;;;;;;0.17;0.15;;;31.20;34.20;;;;;;5026246;28;20055;-73
2022/05/27 03:09:36;;;;;;;0.00;0.00;;;31.40;33.70;;;;;;5018994;28;20386;-73
2022/05/27 03:12:16;;;;;;;2.28;1.20;;;31.20;33.30;;;;;;5016655;28;20033;-73
2022/05/27 03:15:12;;;;;;;0.00;0.00;;;31.00;33.50;;;;;;5027952;28;20021;-73
2022/05/27 03:18:11;;;;;;;0.10;0.10;;;31.20;34.60;;;;;;5024517;28;20033;-72
2022/05/27 03:21:03;;;;;;;0.10;0.10;;;31.00;34.30;;;;;;5022208;28;20243;-72
2022/05/27 03:23:44;;;;;;;0.00;0.00;;;31.00;34.70;;;;;;5020104;28;20479;-72
2022/05/27 03:26:21;;;;;;;2.05;0.90;;;30.80;35.60;;;;;;5021821;28;20577;-73
2022/05/27 03:29:09;;;;;;;0.00;0.00;;;30.10;35.60;;;;;;5023491;28;20475;-72
2022/05/27 03:32:00;;;;;;;7.10;6.80;;;30.50;35.00;;;;;;5012985;28;20034;-73
2022/05/27 03:34:35;;;;;;;0.00;0.00;;;29.90;36.80;;;;;;5034090;28;20018;-74
2022/05/27 03:37:16;;;;;;;0.10;0.10;;;30.30;37.00;;;;;;5022833;28;20068;-73
2022/05/27 03:39:54;;;;;;;0.00;0.00;;;30.60;35.50;;;;;;5018413;28;21963;-73
2022/05/27 03:42:24;;;;;;;0.57;0.43;;;30.40;35.70;;;;;;5014690;28;20033;-73
2022/05/27 03:45:14;;;;;;;6.88;2.53;;;31.10;34.70;;;;;;5018831;28;20072;-73
2022/05/27 03:47:42;;;;;;;0.32;0.32;;;30.90;34.10;;;;;;5018549;28;20025;-73
2022/05/27 03:50:11;;;;;;;0.00;0.00;;;30.50;35.10;;;;;;5021469;28;20029;-73
2022/05/27 03:52:43;;;;;;;0.00;0.00;;;30.10;35.80;;;;;;5015592;28;20030;-73
2022/05/27 03:55:13;;;;;;;3.78;2.22;;;29.60;36.50;;;;;;5023689;28;20024;-72
2022/05/27 03:57:39;;;;;;;2.17;2.05;;;28.60;38.00;;;;;;5018276;28;20026;-75
2022/05/27 04:00:06;;;;;;;14.15;0.47;;;28.50;38.30;;;;;;5019477;28;20076;-74
2022/05/27 04:02:33;;;;;;;0.00;0.00;;;28.50;38.30;;;;;;5015033;28;20043;-74
2022/05/27 04:04:59;;;;;;;0.00;0.00;;;28.70;37.70;;;;;;5026915;28;20043;-73
2022/05/27 04:07:25;;;;;;;0.00;0.00;;;28.50;39.00;;;;;;5018540;28;20078;-74
2022/05/27 04:09:51;;;;;;;0.35;0.15;;;28.50;39.60;;;;;;5021753;28;20089;-75
2022/05/27 04:12:20;;;;;;;0.00;0.00;;;28.30;39.80;;;;;;5017388;28;20393;-74
2022/05/27 04:14:50;;;;;;;0.00;0.00;;;28.30;40.30;;;;;;5024443;28;20520;-73
2022/05/27 04:17:30;;;;;;;5.68;1.35;;;28.30;39.90;;;;;;5023340;28;20025;-73
2022/05/27 04:20:02;;;;;;;4.50;1.27;;;27.10;40.60;;;;;;5018221;28;20026;-73
2022/05/27 04:22:28;;;;;;;0.00;0.00;;;26.90;42.50;;;;;;5015368;28;20044;-73
2022/05/27 04:24:54;;;;;;;0.00;0.00;;;27.20;42.40;;;;;;5019484;28;20040;-72
2022/05/27 04:27:21;;;;;;;12.23;1.45;;;27.10;41.50;;;;;;5024312;28;20420;-72
2022/05/27 04:29:50;;;;;;;4.28;2.83;;;27.40;40.90;;;;;;5019578;28;20068;-72
2022/05/27 04:32:17;;;;;;;2.83;1.13;;;27.30;40.10;;;;;;5015468;28;20120;-71
2022/05/27 04:34:44;;;;;;;7.43;0.93;;;27.10;40.70;;;;;;5020741;28;20442;-74
2022/05/27 04:37:11;;;;;;;4.15;3.85;;;26.50;41.30;;;;;;5019115;28;20450;-74
2022/05/27 04:39:37;;;;;;;0.93;0.52;;;26.50;41.70;;;;;;5021375;28;20471;-74
2022/05/27 04:42:04;;;;;;;0.00;0.00;;;26.90;41.50;;;;;;5025109;28;20083;-72
2022/05/27 04:44:30;;;;;;;0.00;0.00;;;26.50;40.90;;;;;;5028967;28;20060;-73
2022/05/27 04:46:56;;;;;;;0.00;0.00;;;26.80;41.00;;;;;;5024398;28;20474;-72
2022/05/27 04:52:07;;;;;;;13.45;9.25;;;27.30;40.90;;;;;;5028230;28;20453;-74
2022/05/27 04:54:33;;;;;;;0.00;0.00;;;27.10;41.40;;;;;;5028874;28;20123;-74
2022/05/27 04:56:59;;;;;;;7.78;1.38;;;27.10;42.30;;;;;;5028072;28;20040;-72
2022/05/27 04:59:25;;;;;;;0.00;0.00;;;27.10;42.00;;;;;;5025393;28;20472;-73
2022/05/27 05:01:52;;;;;;;0.10;0.10;;;26.80;41.40;;;;;;5022711;28;20062;-72
2022/05/27 05:04:18;;;;;;;0.47;0.03;;;26.70;42.30;;;;;;5024528;28;20022;-73
2022/05/27 05:06:45;;;;;;;1.25;1.20;;;26.60;45.30;;;;;;5026316;28;20120;-73
2022/05/27 05:09:12;;;;;;;20.88;1.10;;;26.70;45.10;;;;;;5020649;28;20031;-75
2022/05/27 05:11:38;;;;;;;0.00;0.00;;;26.30;44.70;;;;;;5019037;28;20084;-71
2022/05/27 05:14:04;;;;;;;6.38;1.98;;;26.30;46.60;;;;;;5030212;28;20033;-74
2022/05/27 05:16:30;;;;;;;0.00;0.00;;;26.80;45.70;;;;;;5023258;28;20013;-73
2022/05/27 05:18:56;;;;;;;0.73;0.50;;;26.70;45.40;;;;;;5028383;28;20056;-73
2022/05/27 05:21:22;;;;;;;9.65;6.55;;;26.90;43.90;;;;;;5023667;28;20477;-73
2022/05/27 05:23:48;;;;;;;26.13;13.43;;;26.70;43.70;;;;;;5025362;28;20117;-73
2022/05/27 05:26:15;;;;;;;0.10;0.10;;;26.70;45.90;;;;;;5036134;28;20025;-74
2022/05/27 05:28:41;;;;;;;3.53;1.85;;;26.50;46.40;;;;;;5025732;28;20072;-74
2022/05/27 05:31:11;;;;;;;3.72;1.40;;;26.50;46.50;;;;;;5026630;28;20096;-74
2022/05/27 05:33:37;;;;;;;7.03;1.17;;;26.60;45.80;;;;;;5021242;28;20480;-74
2022/05/27 05:36:04;;;;;;;2.88;2.63;;;26.40;46.20;;;;;;5014243;28;20034;-74
2022/05/27 05:38:30;;;;;;;2.72;1.55;;;26.30;46.40;;;;;;5018266;28;20367;-74
2022/05/27 05:40:56;;;;;;;5.80;4.30;;;26.30;46.10;;;;;;5037383;28;20037;-74
2022/05/27 05:43:22;;;;;;;2.10;1.10;;;26.40;45.80;;;;;;5017647;28;20026;-72
2022/05/27 05:45:48;;;;;;;0.75;0.73;;;26.60;45.00;;;;;;5020259;28;20386;-74
2022/05/27 05:48:14;;;;;;;0.45;0.45;;;26.60;46.90;;;;;;5023512;28;20064;-73
2022/05/27 05:50:40;;;;;;;2.75;2.38;;;26.50;45.40;;;;;;5016806;28;20029;-73
2022/05/27 05:53:06;;;;;;;6.05;5.63;;;26.50;45.50;;;;;;5020414;28;20097;-72
2022/05/27 05:55:35;;;;;;;1.80;0.47;;;26.40;46.60;;;;;;5018147;28;20108;-73
2022/05/27 05:58:03;;;;;;;0.00;0.00;;;26.60;45.70;;;;;;5018487;28;20041;-73
2022/05/27 06:00:29;;;;;;;0.00;0.00;;;26.80;46.70;;;;;;5014534;28;20021;-73
2022/05/27 06:02:56;;;;;;;0.30;0.30;;;27.10;45.50;;;;;;5024926;28;20029;-74
2022/05/27 06:05:24;;;;;;;0.00;0.00;;;27.10;45.50;;;;;;5017221;28;20029;-73
2022/05/27 06:07:52;;;;;;;0.00;0.00;;;27.40;44.70;;;;;;5014224;28;20470;-74
2022/05/27 06:10:19;;;;;;;3.47;1.30;;;27.20;45.00;;;;;;5026535;28;20026;-73
2022/05/27 06:12:45;;;;;;;0.25;0.25;;;27.20;45.30;;;;;;5013624;28;20052;-73
2022/05/27 06:15:14;;;;;;;0.35;0.32;;;27.50;45.90;;;;;;5018353;28;20451;-75
2022/05/27 06:17:40;;;;;;;0.15;0.13;;;27.50;45.30;;;;;;5019064;28;20481;-74
2022/05/27 06:20:07;;;;;;;0.15;0.15;;;27.20;47.30;;;;;;5024440;28;20319;-73
2022/05/27 06:22:34;;;;;;;9.20;6.60;;;27.40;45.90;;;;;;5024429;28;20095;-73
2022/05/27 06:25:00;;;;;;;21.67;8.05;;;27.30;46.00;;;;;;5024520;28;20105;-73
2022/05/27 06:27:27;;;;;;;6.57;3.03;;;27.30;47.30;;;;;;5015635;28;20033;-74
2022/05/27 06:35:22;;;;;;;0.00;0.00;;;27.10;47.00;;;;;;5017121;28;20310;-73
2022/05/27 06:37:49;;;;;;;4.95;4.47;;;27.50;47.40;;;;;;5012531;28;20141;-74
2022/05/27 06:40:16;;;;;;;34.88;18.92;;;27.80;47.00;;;;;;5021034;28;20071;-73
2022/05/27 06:42:42;;;;;;;18.20;8.30;;;27.30;46.40;;;;;;5022483;28;20025;-73
2022/05/27 06:45:13;;;;;;;0.00;0.00;;;27.20;47.10;;;;;;5021174;28;20029;-73
2022/05/27 06:47:39;;;;;;;4.90;4.10;;;27.40;46.50;;;;;;5015966;28;20029;-73
2022/05/27 06:50:07;;;;;;;45.05;3.67;;;27.80;45.60;;;;;;5018796;28;20565;-73
2022/05/27 06:52:33;;;;;;;3.20;1.17;;;27.70;47.00;;;;;;5019533;28;20136;-72
2022/05/27 06:54:59;;;;;;;1.35;0.25;;;27.30;46.50;;;;;;5014404;28;20058;-72
2022/05/27 06:57:25;;;;;;;0.55;0.10;;;27.40;46.20;;;;;;5021703;28;20437;-75
2022/05/27 06:59:51;;;;;;;0.00;0.00;;;27.20;47.40;;;;;;5019234;28;20057;-72
2022/05/27 07:02:18;;;;;;;3.83;0.82;;;27.10;47.40;;;;;;5022403;28;20030;-73
2022/05/27 07:04:44;;;;;;;0.03;0.00;;;27.40;47.00;;;;;;5014437;28;20041;-73
2022/05/27 07:07:10;;;;;;;24.92;9.48;;;27.50;45.80;;;;;;5017767;28;20115;-74
2022/05/27 07:09:36;;;;;;;0.00;0.00;;;27.90;46.40;;;;;;5018077;28;20117;-73
2022/05/27 07:12:08;;;;;;;16.70;6.95;;;28.30;46.10;;;;;;5015057;28;20101;-74
2022/05/27 07:14:34;;;;;;;0.32;0.30;;;27.60;45.80;;;;;;5013232;28;20505;-72
2022/05/27 07:17:01;;;;;;;0.00;0.00;;;27.40;46.20;;;;;;5015075;28;20025;-74
2022/05/27 07:19:27;;;;;;;2.83;1.08;;;27.60;45.10;;;;;;5022364;28;20025;-74
2022/05/27 07:21:56;;;;;;;0.98;0.98;;;27.40;46.00;;;;;;5020633;28;20124;-72
2022/05/27 07:24:24;;;;;;;0.00;0.00;;;27.50;47.10;;;;;;5015759;28;20262;-74
2022/05/27 07:26:50;;;;;;;0.25;0.25;;;28.00;45.80;;;;;;5025075;28;20113;-74
2022/05/27 07:29:17;;;;;;;2.90;2.63;;;28.10;45.50;;;;;;5021092;28;20112;-73
2022/05/27 07:31:44;;;;;;;1.33;0.98;;;28.40;45.00;;;;;;5025132;28;20037;-75
2022/05/27 07:34:11;;;;;;;0.00;0.00;;;28.30;45.10;;;;;;5017398;28;20056;-74
2022/05/27 07:36:38;;;;;;;0.30;0.15;;;28.50;45.40;;;;;;5027668;28;20018;-74
2022/05/27 07:39:04;;;;;;;0.00;0.00;;;28.10;45.30;;;;;;5024835;28;20395;-74
2022/05/27 07:41:31;;;;;;;0.00;0.00;;;28.30;45.40;;;;;;5023086;28;20030;-74
2022/05/27 07:43:59;;;;;;;2.92;2.55;;;28.50;45.90;;;;;;5020463;28;20040;-74
2022/05/27 07:46:26;;;;;;;35.22;2.85;;;28.70;44.10;;;;;;5024942;28;20025;-75
2022/05/27 07:48:52;;;;;;;18.85;4.55;;;28.50;45.50;;;;;;5029835;28;20060;-74
2022/05/27 07:51:18;;;;;;;0.80;0.65;;;28.60;46.40;;;;;;5024386;28;20064;-75
2022/05/27 07:53:44;;;;;;;44.63;5.35;;;28.10;44.50;;;;;;5026101;28;20101;-74
2022/05/27 07:56:11;;;;;;;1.92;1.80;;;27.70;44.90;;;;;;5025812;28;20108;-73
2022/05/27 07:58:38;;;;;;;5.63;3.42;;;27.80;45.40;;;;;;5028825;28;20017;-72
2022/05/27 08:01:05;;;;;;;1.13;1.05;;;28.30;44.50;;;;;;5023243;28;20052;-74
2022/05/27 08:03:31;;;;;;;10.70;1.98;;;28.20;45.50;;;;;;5033585;28;20030;-73
2022/05/27 08:05:59;;;;;;;1.52;0.63;;;28.30;47.00;;;;;;5035363;28;20475;-72
2022/05/27 08:08:27;;;;;;;4.75;3.65;;;28.80;46.10;;;;;;5020440;28;20438;-74
2022/05/27 08:10:53;;;;;;;0.35;0.32;;;28.00;46.70;;;;;;5024676;28;20040;-74
2022/05/27 08:13:20;;;;;;;1.65;0.52;;;28.30;47.30;;;;;;5035089;28;20018;-73
2022/05/27 08:15:46;;;;;;;9.00;8.45;;;28.70;46.70;;;;;;5020545;28;20022;-74
2022/05/27 08:18:13;;;;;;;0.47;0.47;;;28.50;46.50;;;;;;5018607;28;20437;-74
2022/05/27 08:20:39;;;;;;;0.00;0.00;;;28.50;46.40;;;;;;5016063;28;20163;-75
2022/05/27 08:23:06;;;;;;;0.47;0.47;;;28.50;46.80;;;;;;5023531;28;20381;-74
2022/05/27 08:25:35;;;;;;;0.00;0.00;;;28.80;46.70;;;;;;5020657;28;20414;-73
2022/05/27 08:28:01;;;;;;;0.03;0.03;;;28.70;46.30;;;;;;5023812;28;20041;-73
2022/05/27 08:30:29;;;;;;;0.22;0.22;;;29.10;46.10;;;;;;5021749;28;20052;-74
2022/05/27 08:32:57;;;;;;;3.42;3.33;;;29.60;46.50;;;;;;5022375;28;20029;-72
2022/05/27 08:38:14;;;;;;;0.00;0.00;;;29.90;44.50;;;;;;5018658;28;20033;-74
2022/05/27 08:41:04;;;;;;;0.00;0.00;;;29.60;44.40;;;;;;5015393;28;20075;-74
2022/05/27 08:44:07;;;;;;;0.10;0.10;;;29.60;43.80;;;;;;5028653;28;20112;-74
2022/05/27 08:47:09;;;;;;;0.80;0.77;;;29.50;45.50;;;;;;5018913;28;20549;-74
2022/05/27 08:49:42;;;;;;;0.17;0.13;;;29.00;46.50;;;;;;5019693;28;20452;-73
2022/05/27 08:52:13;;;;;;;2.22;2.13;;;28.90;46.60;;;;;;5025276;28;20032;-74
2022/05/27 08:54:46;;;;;;;5.40;1.90;;;29.00;47.00;;;;;;5019123;28;20037;-73
2022/05/27 09:00:15;;;;;;;12.75;3.30;;;29.00;46.70;;;;;;5013278;28;20032;-74
2022/05/27 09:03:05;;;;;;;1.85;0.85;;;29.10;46.40;;;;;;5022027;28;20943;-73
2022/05/27 09:05:54;;;;;;;0.00;0.00;;;29.20;47.00;;;;;;5019329;28;20079;-72
2022/05/27 09:08:23;;;;;;;0.85;0.25;;;29.40;45.70;;;;;;5021238;28;20021;-74
2022/05/27 09:11:09;;;;;;;0.00;0.00;;;29.60;45.80;;;;;;5023254;28;20144;-73
2022/05/27 09:13:45;;;;;;;0.00;0.00;;;29.80;43.90;;;;;;5020152;28;20509;-73
2022/05/27 09:16:19;;;;;;;0.10;0.00;;;30.20;44.10;;;;;;5019212;28;20032;-74
2022/05/27 09:18:58;;;;;;;0.00;0.00;;;30.20;44.80;;;;;;5017180;28;20124;-74
2022/05/27 09:21:48;;;;;;;1.45;1.35;;;30.00;46.50;;;;;;5020839;28;20075;-75
2022/05/27 09:24:45;;;;;;;0.47;0.47;;;29.60;45.50;;;;;;5028099;28;20406;-72
2022/05/27 09:27:14;;;;;;;6.03;1.08;;;29.50;44.80;;;;;;5023863;28;20421;-73
2022/05/27 09:30:06;;;;;;;0.00;0.00;;;29.40;44.70;;;;;;5022110;28;20045;-73
2022/05/27 09:32:48;;;;;;;12.73;6.63;;;29.70;44.80;;;;;;5019394;28;20383;-73
2022/05/27 09:35:18;;;;;;;0.00;0.00;;;29.80;44.70;;;;;;5022190;28;20461;-73
2022/05/27 09:37:48;;;;;;;0.00;0.00;;;29.90;44.40;;;;;;5018667;28;20030;-73
2022/05/27 09:40:25;;;;;;;9.93;4.75;;;29.50;45.20;;;;;;5021734;28;20166;-74
2022/05/27 09:43:43;;;;;;;0.40;0.28;;;29.80;44.40;;;;;;5017399;28;20041;-73
2022/05/27 09:46:17;;;;;;;0.00;0.00;;;29.80;44.30;;;;;;5014472;28;20070;-73
2022/05/27 09:48:44;;;;;;;0.00;0.00;;;29.70;44.50;;;;;;5018363;28;20151;-73
2022/05/27 09:51:12;;;;;;;0.00;0.00;;;30.00;43.80;;;;;;5018210;28;20029;-72
2022/05/27 09:53:48;;;;;;;0.00;0.00;;;29.90;44.40;;;;;;5014871;28;20123;-75
2022/05/27 09:56:16;;;;;;;0.35;0.35;;;30.10;43.90;;;;;;5022368;28;20037;-72
2022/05/27 09:58:45;;;;;;;0.00;0.00;;;30.30;44.40;;;;;;5014878;28;20348;-74
2022/05/27 10:01:22;;;;;;;3.60;0.20;;;30.30;44.20;;;;;;5017358;28;20348;-74
2022/05/27 10:04:12;;;;;;;0.00;0.00;;;30.20;44.30;;;;;;5016658;28;20037;-74
2022/05/27 10:06:38;;;;;;;1.13;1.10;;;30.10;44.00;;;;;;5022151;28;20072;-74
2022/05/27 10:09:11;;;;;;;0.70;0.70;;;30.30;44.80;;;;;;5022015;28;20033;-74
2022/05/27 10:11:52;;;;;;;1.60;0.90;;;30.30;43.50;;;;;;5026588;28;20104;-74
2022/05/27 10:14:37;;;;;;;1.35;1.23;;;30.30;44.20;;;;;;5022318;28;20044;-74
2022/05/27 10:17:13;;;;;;;0.10;0.10;;;30.20;43.70;;;;;;5022586;28;20029;-74
2022/05/27 10:19:42;;;;;;;0.00;0.00;;;30.20;43.60;;;;;;5016841;28;20036;-74
2022/05/27 10:22:20;;;;;;;0.00;0.00;;;30.10;43.80;;;;;;5018540;28;20036;-74
2022/05/27 10:25:07;;;;;;;0.10;0.10;;;30.20;43.80;;;;;;5016420;28;20030;-74
2022/05/27 10:27:44;;;;;;;0.40;0.40;;;30.00;43.80;;;;;;5016764;28;20033;-73
2022/05/27 10:30:30;;;;;;;0.00;0.00;;;29.90;44.50;;;;;;5012379;28;20045;-75
2022/05/27 10:33:15;;;;;;;0.03;0.03;;;29.70;44.50;;;;;;5010262;28;20034;-73
2022/05/27 10:35:41;;;;;;;0.00;0.00;;;29.60;44.50;;;;;;5015260;28;20044;-75
2022/05/27 10:38:38;;;;;;;6.70;1.20;;;29.90;43.70;;;;;;5020489;28;20026;-74
2022/05/27 10:41:16;;;;;;;0.00;0.00;;;29.80;45.10;;;;;;5019322;28;20037;-73
2022/05/27 10:43:58;;;;;;;0.00;0.00;;;29.70;44.60;;;;;;5019232;28;20049;-73
2022/05/27 10:46:34;;;;;;;0.00;0.00;;;29.80;45.10;;;;;;5025010;28;20036;-73
2022/05/27 10:49:08;;;;;;;0.00;0.00;;;29.20;45.10;;;;;;5020230;28;20032;-73
2022/05/27 10:51:44;;;;;;;6.93;1.55;;;29.30;45.80;;;;;;5017868;28;20041;-75
2022/05/27 10:54:47;;;;;;;1.17;1.10;;;29.60;45.60;;;;;;5018080;28;20022;-73
2022/05/27 11:03:32;;;;;;;0.05;0.05;;;29.40;43.40;;;;;;5018802;28;20048;-74
2022/05/27 11:06:04;;;;;;;0.00;0.00;;;29.50;43.00;;;;;;5018795;28;20069;-74
2022/05/27 11:08:42;;;;;;;7.78;4.68;;;29.60;43.20;;;;;;5014953;28;20058;-74
2022/05/27 11:11:44;;;;;;;0.00;0.00;;;29.70;42.50;;;;;;5018339;28;20176;-76
2022/05/27 11:17:20;;;;;;;11.25;0.93;;;29.10;44.30;;;;;;5021850;28;20040;-74
2022/05/27 11:19:54;;;;;;;0.00;0.00;;;28.90;43.50;;;;;;5021663;28;20064;-75
2022/05/27 11:22:46;;;;;;;9.95;4.47;;;29.00;44.00;;;;;;5016885;28;20037;-74
2022/05/27 11:25:27;;;;;;;0.25;0.25;;;29.20;43.90;;;;;;5015712;28;20438;-75
2022/05/27 11:28:05;;;;;;;1.30;1.20;;;29.40;44.40;;;;;;5019460;28;20052;-73
2022/05/27 11:31:04;;;;;;;0.00;0.00;;;29.40;43.60;;;;;;5014661;28;20077;-74
2022/05/27 11:33:35;;;;;;;0.00;0.00;;;29.60;43.50;;;;;;5023599;28;20029;-74
2022/05/27 11:36:19;;;;;;;0.00;0.00;;;29.70;43.30;;;;;;5021909;28;20025;-75
2022/05/27 11:39:23;;;;;;;0.00;0.00;;;29.70;43.60;;;;;;5017841;28;20414;-73
2022/05/27 11:42:38;;;;;;;0.00;0.00;;;29.60;43.10;;;;;;5014084;28;20033;-73
2022/05/27 11:45:12;;;;;;;0.38;0.38;;;29.40;44.10;;;;;;5017466;28;20077;-75
2022/05/27 11:48:05;;;;;;;0.00;0.00;;;29.30;43.80;;;;;;5017694;28;20034;-73
2022/05/27 11:51:07;;;;;;;0.00;0.00;;;29.30;43.30;;;;;;5025333;28;20104;-76
2022/05/27 11:53:55;;;;;;;0.00;0.00;;;29.10;43.50;;;;;;5028279;28;20025;-73
2022/05/27 11:56:49;;;;;;;1.85;1.17;;;29.20;43.50;;;;;;5026818;28;20055;-74
2022/05/27 11:59:27;;;;;;;0.00;0.00;;;29.00;43.60;;;;;;5026521;28;20437;-74
2022/05/27 12:02:26;;;;;;;12.20;1.10;;;28.90;43.80;;;;;;5030992;28;20029;-73
2022/05/27 12:05:01;;;;;;;0.00;0.00;;;28.70;44.70;;;;;;5027307;28;20033;-73
2022/05/27 12:07:36;;;;;;;0.00;0.00;;;29.00;45.10;;;;;;5023449;28;20021;-73
2022/05/27 12:10:10;;;;;;;0.70;0.70;;;28.90;45.60;;;;;;5022313;28;20046;-74
2022/05/27 12:12:48;;;;;;;0.00;0.00;;;29.00;46.10;;;;;;5023938;28;20474;-74
2022/05/27 12:15:35;;;;;;;0.00;0.00;;;29.10;45.80;;;;;;5028114;28;20425;-73
2022/05/27 12:18:02;;;;;;;0.00;0.00;;;29.00;46.30;;;;;;5026035;28;20108;-73
2022/05/27 12:20:32;;;;;;;0.00;0.00;;;29.10;46.10;;;;;;5026917;28;20021;-74
2022/05/27 12:23:02;;;;;;;0.30;0.30;;;29.10;46.00;;;;;;5032398;28;20435;-72
2022/05/27 12:25:32;;;;;;;0.00;0.00;;;29.10;45.70;;;;;;5025985;28;20421;-74
2022/05/27 12:28:02;;;;;;;0.00;0.00;;;29.20;45.50;;;;;;5026007;28;20044;-72
2022/05/27 12:30:49;;;;;;;2.83;2.63;;;29.10;45.30;;;;;;5024862;28;20125;-74
2022/05/27 12:33:19;;;;;;;0.22;0.22;;;29.10;45.20;;;;;;5024481;28;20482;-75
2022/05/27 12:35:54;;;;;;;0.00;0.00;;;29.10;45.00;;;;;;5022236;28;20052;-74
2022/05/27 12:38:36;;;;;;;0.00;0.00;;;29.00;46.00;;;;;;5027208;28;20033;-75
2022/05/27 12:41:05;;;;;;;0.10;0.10;;;29.00;45.50;;;;;;5024487;28;20044;-73
2022/05/27 12:43:55;;;;;;;8.48;2.92;;;29.00;45.40;;;;;;5036831;28;20030;-73
2022/05/27 12:46:39;;;;;;;0.00;0.00;;;28.90;45.30;;;;;;5037388;28;20439;-73
2022/05/27 12:49:26;;;;;;;1.13;0.57;;;28.80;45.10;;;;;;5023510;28;20044;-74
2022/05/27 12:51:53;;;;;;;0.22;0.22;;;28.60;45.30;;;;;;5024615;28;20030;-73
2022/05/27 12:54:41;;;;;;;0.82;0.77;;;28.50;46.10;;;;;;5023460;28;20029;-74
2022/05/27 13:03:31;;;;;;;0.00;0.00;;;28.20;47.00;;;;;;5038601;28;20033;-74
2022/05/27 13:06:07;;;;;;;5.45;3.65;;;28.20;47.60;;;;;;5032411;28;20025;-73
2022/05/27 13:08:42;;;;;;;0.00;0.00;;;28.30;47.40;;;;;;5022985;28;20160;-73
2022/05/27 13:11:15;;;;;;;1.45;0.55;;;28.30;47.40;;;;;;5021360;28;20030;-73
2022/05/27 13:13:42;;;;;;;0.00;0.00;;;28.40;47.60;;;;;;5021186;28;20260;-72
2022/05/27 13:16:25;;;;;;;0.00;0.00;;;28.40;47.00;;;;;;5025005;28;20483;-73
2022/05/27 13:19:06;;;;;;;0.55;0.55;;;28.20;46.60;;;;;;5019697;28;20113;-73
2022/05/27 13:21:39;;;;;;;0.55;0.55;;;28.10;46.80;;;;;;5021598;28;20496;-73
2022/05/27 13:24:32;;;;;;;0.00;0.00;;;28.10;46.90;;;;;;5021618;28;20529;-72
2022/05/27 13:27:27;;;;;;;0.10;0.10;;;28.10;46.70;;;;;;5023264;28;20025;-72
2022/05/27 13:30:06;;;;;;;0.00;0.00;;;28.00;46.90;;;;;;5019597;28;20057;-73
2022/05/27 13:32:52;;;;;;;0.00;0.00;;;27.90;47.70;;;;;;5024795;28;20057;-74
2022/05/27 13:35:22;;;;;;;0.00;0.00;;;27.60;47.70;;;;;;5025036;28;20025;-73
2022/05/27 13:37:56;;;;;;;0.00;0.00;;;27.80;47.50;;;;;;5022322;28;20402;-72
2022/05/27 13:40:28;;;;;;;0.00;0.00;;;27.80;47.20;;;;;;5024630;28;20037;-72
2022/05/27 13:43:01;;;;;;;0.00;0.00;;;27.80;47.60;;;;;;5019537;28;20025;-73
2022/05/27 13:45:56;;;;;;;0.00;0.00;;;27.60;47.40;;;;;;5022644;28;20025;-72
2022/05/27 13:48:32;;;;;;;0.00;0.00;;;27.70;47.30;;;;;;5019481;28;20036;-72
2022/05/27 13:51:13;;;;;;;0.00;0.00;;;27.70;47.10;;;;;;5023498;28;20528;-73
2022/05/27 13:53:40;;;;;;;0.57;0.57;;;27.60;46.60;;;;;;5018339;28;20641;-73
2022/05/27 13:56:25;;;;;;;0.00;0.00;;;27.50;47.00;;;;;;5016321;28;20115;-73